KMWH

Grant Co International Airport

Moses Lake, Washington, USA
METAR KMWH 220452Z 28008KT 10SM CLR 24/03 A2990 RMK AO2 SLP118 T02440028
Observed Flight Rules
Jun-22 @ 04:52 UTC (48 minutes ago) Visual Flight Rules
Wind Visibility Clouds
280° at 8 knots 10 miles
  • Clear skies
Temperatures Readings
Current 24°C / 75°F
Dewpoint 3°C / 37°F
Humidity 25%
Altimeter 29.9" Hg
Pressure 1011.8 hPa
Elevation 362
METAR KMWH 220452Z 28008KT 10SM CLR 24/03 A2990 RMK AO2 SLP118 T02440028
Observed Flight Rules
Jun-22 @ 04:52 UTC
(48 minutes ago)
VFR
Wind Visibility
280° at 8 knots 10 miles
Clouds
  • Clear skies
Temperature Dewpoint
24°C / 75°F 3°C / 37°F
Humidity Altimeter Pressure
25% 29.9" Hg 1011.8 hPa